sensor_id;sensor_type;location;lat;lon;timestamp;pressure;altitude;pressure_sealevel;temperature;humidity
73633;BME280;61927;50.080;14.418;2023-05-20T00:00:50;100075.81;;;12.12;72.88
73633;BME280;61927;50.080;14.418;2023-05-20T00:03:19;100073.75;;;12.17;72.93
73633;BME280;61927;50.080;14.418;2023-05-20T00:05:45;100073.66;;;12.18;72.62
73633;BME280;61927;50.080;14.418;2023-05-20T00:08:11;100072.88;;;12.16;72.59
73633;BME280;61927;50.080;14.418;2023-05-20T00:10:37;100071.16;;;12.15;72.75
73633;BME280;61927;50.080;14.418;2023-05-20T00:13:03;100068.50;;;12.15;72.77
73633;BME280;61927;50.080;14.418;2023-05-20T00:15:29;100067.16;;;12.08;72.82
73633;BME280;61927;50.080;14.418;2023-05-20T00:17:55;100077.13;;;12.05;73.15
73633;BME280;61927;50.080;14.418;2023-05-20T00:20:21;100070.25;;;12.01;73.29
73633;BME280;61927;50.080;14.418;2023-05-20T00:22:46;100078.16;;;12.02;73.37
73633;BME280;61927;50.080;14.418;2023-05-20T00:25:12;100072.91;;;12.01;73.13
73633;BME280;61927;50.080;14.418;2023-05-20T00:27:41;100068.53;;;12.00;73.38
73633;BME280;61927;50.080;14.418;2023-05-20T00:30:07;100082.19;;;11.93;73.64
73633;BME280;61927;50.080;14.418;2023-05-20T00:32:33;100085.81;;;11.92;73.63
73633;BME280;61927;50.080;14.418;2023-05-20T00:35:00;100077.81;;;11.92;73.79
73633;BME280;61927;50.080;14.418;2023-05-20T00:37:25;100076.44;;;12.01;73.54
73633;BME280;61927;50.080;14.418;2023-05-20T00:39:51;100070.66;;;12.09;73.22
73633;BME280;61927;50.080;14.418;2023-05-20T00:42:24;100069.09;;;12.20;73.05
73633;BME280;61927;50.080;14.418;2023-05-20T00:44:51;100077.84;;;12.22;72.59
73633;BME280;61927;50.080;14.418;2023-05-20T00:47:19;100068.25;;;12.20;72.81
73633;BME280;61927;50.080;14.418;2023-05-20T00:49:46;100077.56;;;12.27;72.56
73633;BME280;61927;50.080;14.418;2023-05-20T00:52:13;100066.94;;;12.27;72.41
73633;BME280;61927;50.080;14.418;2023-05-20T00:54:39;100065.81;;;12.31;72.07
73633;BME280;61927;50.080;14.418;2023-05-20T00:57:05;100060.38;;;12.33;72.09
73633;BME280;61927;50.080;14.418;2023-05-20T00:59:33;100061.97;;;12.21;72.34
73633;BME280;61927;50.080;14.418;2023-05-20T01:01:59;100064.22;;;12.13;72.42
73633;BME280;61927;50.080;14.418;2023-05-20T01:04:25;100063.28;;;12.14;72.88
73633;BME280;61927;50.080;14.418;2023-05-20T01:06:51;100054.44;;;12.13;72.91
73633;BME280;61927;50.080;14.418;2023-05-20T01:09:17;100048.94;;;12.16;72.72
73633;BME280;61927;50.080;14.418;2023-05-20T01:12:13;100047.91;;;12.19;72.70
73633;BME280;61927;50.080;14.418;2023-05-20T01:14:49;100043.88;;;12.12;72.99
73633;BME280;61927;50.080;14.418;2023-05-20T01:17:18;100040.66;;;12.07;73.04
73633;BME280;61927;50.080;14.418;2023-05-20T01:19:46;100042.19;;;12.11;73.20
73633;BME280;61927;50.080;14.418;2023-05-20T01:22:13;100044.06;;;12.09;73.13
73633;BME280;61927;50.080;14.418;2023-05-20T01:24:44;100047.00;;;12.04;73.23
73633;BME280;61927;50.080;14.418;2023-05-20T01:27:11;100033.03;;;12.01;73.30
73633;BME280;61927;50.080;14.418;2023-05-20T01:29:41;100042.22;;;11.95;73.48
73633;BME280;61927;50.080;14.418;2023-05-20T01:32:29;100033.56;;;11.91;73.84
73633;BME280;61927;50.080;14.418;2023-05-20T01:34:57;100036.03;;;11.94;73.75
73633;BME280;61927;50.080;14.418;2023-05-20T01:37:23;100039.47;;;11.96;73.59
73633;BME280;61927;50.080;14.418;2023-05-20T01:39:50;100036.91;;;11.95;73.65
73633;BME280;61927;50.080;14.418;2023-05-20T01:42:17;100027.19;;;11.94;73.74
73633;BME280;61927;50.080;14.418;2023-05-20T01:44:44;100028.91;;;11.95;73.81
73633;BME280;61927;50.080;14.418;2023-05-20T01:47:09;100026.16;;;11.96;73.59
73633;BME280;61927;50.080;14.418;2023-05-20T01:49:35;100028.25;;;11.91;73.57
73633;BME280;61927;50.080;14.418;2023-05-20T01:52:00;100027.38;;;11.75;74.25
73633;BME280;61927;50.080;14.418;2023-05-20T01:54:26;100017.94;;;11.70;75.02
73633;BME280;61927;50.080;14.418;2023-05-20T01:56:52;100012.72;;;11.68;74.71
73633;BME280;61927;50.080;14.418;2023-05-20T01:59:18;100021.22;;;11.75;74.84
73633;BME280;61927;50.080;14.418;2023-05-20T02:01:43;100027.06;;;11.81;74.32
73633;BME280;61927;50.080;14.418;2023-05-20T02:04:09;100023.19;;;11.87;74.00
73633;BME280;61927;50.080;14.418;2023-05-20T02:06:34;100026.69;;;11.87;74.36
73633;BME280;61927;50.080;14.418;2023-05-20T02:09:00;100032.88;;;11.88;74.47
73633;BME280;61927;50.080;14.418;2023-05-20T02:11:26;100031.94;;;11.89;74.14
73633;BME280;61927;50.080;14.418;2023-05-20T02:13:52;100033.06;;;11.85;74.23
73633;BME280;61927;50.080;14.418;2023-05-20T02:16:17;100030.84;;;11.77;74.48
73633;BME280;61927;50.080;14.418;2023-05-20T02:18:43;100031.16;;;11.71;74.84
73633;BME280;61927;50.080;14.418;2023-05-20T02:21:08;100027.56;;;11.72;75.04
73633;BME280;61927;50.080;14.418;2023-05-20T02:23:34;100030.84;;;11.77;74.72
73633;BME280;61927;50.080;14.418;2023-05-20T02:26:00;100032.59;;;11.77;74.92
73633;BME280;61927;50.080;14.418;2023-05-20T02:28:26;100028.25;;;11.76;75.00
73633;BME280;61927;50.080;14.418;2023-05-20T02:30:52;100036.47;;;11.71;75.12
73633;BME280;61927;50.080;14.418;2023-05-20T02:33:18;100036.66;;;11.68;75.24
73633;BME280;61927;50.080;14.418;2023-05-20T02:35:44;100030.66;;;11.64;75.52
73633;BME280;61927;50.080;14.418;2023-05-20T02:38:11;100024.56;;;11.62;75.34
73633;BME280;61927;50.080;14.418;2023-05-20T02:40:36;100018.22;;;11.65;75.46
73633;BME280;61927;50.080;14.418;2023-05-20T02:43:02;100016.50;;;11.64;75.41
73633;BME280;61927;50.080;14.418;2023-05-20T02:45:28;100014.28;;;11.56;75.70
73633;BME280;61927;50.080;14.418;2023-05-20T02:47:53;100010.34;;;11.48;76.21
73633;BME280;61927;50.080;14.418;2023-05-20T02:50:19;100013.25;;;11.43;76.25
73633;BME280;61927;50.080;14.418;2023-05-20T02:52:45;100014.72;;;11.33;76.76
73633;BME280;61927;50.080;14.418;2023-05-20T02:55:11;100010.59;;;11.27;77.13
73633;BME280;61927;50.080;14.418;2023-05-20T02:57:37;100018.41;;;11.30;77.03
73633;BME280;61927;50.080;14.418;2023-05-20T03:00:05;100020.97;;;11.32;77.23
73633;BME280;61927;50.080;14.418;2023-05-20T03:02:33;100014.38;;;11.23;77.08
73633;BME280;61927;50.080;14.418;2023-05-20T03:04:58;100010.88;;;11.23;77.56
73633;BME280;61927;50.080;14.418;2023-05-20T03:07:24;100005.38;;;11.26;77.21
73633;BME280;61927;50.080;14.418;2023-05-20T03:09:50;100002.63;;;11.27;77.37
73633;BME280;61927;50.080;14.418;2023-05-20T03:12:16;100008.72;;;11.29;77.35
73633;BME280;61927;50.080;14.418;2023-05-20T03:14:41;100004.44;;;11.27;77.69
73633;BME280;61927;50.080;14.418;2023-05-20T03:17:08;100004.09;;;11.33;77.46
73633;BME280;61927;50.080;14.418;2023-05-20T03:19:33;100005.56;;;11.39;77.22
73633;BME280;61927;50.080;14.418;2023-05-20T03:22:00;100018.22;;;11.33;77.19
73633;BME280;61927;50.080;14.418;2023-05-20T03:24:26;100016.53;;;11.32;77.33
73633;BME280;61927;50.080;14.418;2023-05-20T03:26:52;100021.06;;;11.30;77.47
73633;BME280;61927;50.080;14.418;2023-05-20T03:29:17;100016.44;;;11.34;76.98
73633;BME280;61927;50.080;14.418;2023-05-20T03:31:43;100024.50;;;11.32;77.20
73633;BME280;61927;50.080;14.418;2023-05-20T03:34:08;100025.53;;;11.30;77.26
73633;BME280;61927;50.080;14.418;2023-05-20T03:36:34;100023.88;;;11.27;77.68
73633;BME280;61927;50.080;14.418;2023-05-20T03:38:59;100023.03;;;11.27;77.59
73633;BME280;61927;50.080;14.418;2023-05-20T03:41:27;100015.41;;;11.21;77.80
73633;BME280;61927;50.080;14.418;2023-05-20T03:43:52;100019.94;;;11.19;78.16
73633;BME280;61927;50.080;14.418;2023-05-20T03:46:18;100024.41;;;11.18;78.37
73633;BME280;61927;50.080;14.418;2023-05-20T03:48:43;100026.19;;;11.18;77.86
73633;BME280;61927;50.080;14.418;2023-05-20T03:51:09;100032.28;;;11.20;77.75
73633;BME280;61927;50.080;14.418;2023-05-20T03:53:34;100027.13;;;11.17;78.30
73633;BME280;61927;50.080;14.418;2023-05-20T03:56:00;100028.00;;;11.17;78.30
73633;BME280;61927;50.080;14.418;2023-05-20T03:58:26;100033.13;;;11.20;78.06
73633;BME280;61927;50.080;14.418;2023-05-20T04:00:54;100035.53;;;11.25;78.23
73633;BME280;61927;50.080;14.418;2023-05-20T04:03:20;100036.75;;;11.35;77.83
73633;BME280;61927;50.080;14.418;2023-05-20T04:05:47;100035.97;;;11.33;77.37
73633;BME280;61927;50.080;14.418;2023-05-20T04:08:13;100031.94;;;11.26;77.60
73633;BME280;61927;50.080;14.418;2023-05-20T04:10:42;100030.31;;;11.23;77.94
73633;BME280;61927;50.080;14.418;2023-05-20T04:13:08;100030.84;;;11.30;78.14
73633;BME280;61927;50.080;14.418;2023-05-20T04:15:35;100030.66;;;11.33;77.78
73633;BME280;61927;50.080;14.418;2023-05-20T04:18:01;100032.28;;;11.36;77.44
73633;BME280;61927;50.080;14.418;2023-05-20T04:20:27;100031.09;;;11.41;77.52
73633;BME280;61927;50.080;14.418;2023-05-20T04:22:52;100034.25;;;11.48;76.81
73633;BME280;61927;50.080;14.418;2023-05-20T04:25:19;100024.50;;;11.48;77.06
73633;BME280;61927;50.080;14.418;2023-05-20T04:27:44;100029.81;;;11.48;76.75
73633;BME280;61927;50.080;14.418;2023-05-20T04:30:11;100030.66;;;11.49;77.13
73633;BME280;61927;50.080;14.418;2023-05-20T04:32:37;100034.09;;;11.51;77.02
73633;BME280;61927;50.080;14.418;2023-05-20T04:35:03;100033.84;;;11.55;76.98
73633;BME280;61927;50.080;14.418;2023-05-20T04:37:37;100028.50;;;11.55;76.90
73633;BME280;61927;50.080;14.418;2023-05-20T04:40:04;100026.88;;;11.53;77.07
73633;BME280;61927;50.080;14.418;2023-05-20T04:42:34;100012.38;;;11.58;76.46
73633;BME280;61927;50.080;14.418;2023-05-20T04:45:00;100006.41;;;11.55;76.95
73633;BME280;61927;50.080;14.418;2023-05-20T04:47:27;100015.47;;;11.51;77.37
73633;BME280;61927;50.080;14.418;2023-05-20T04:49:54;100011.78;;;11.53;77.13
73633;BME280;61927;50.080;14.418;2023-05-20T04:52:24;100014.38;;;11.55;77.06
73633;BME280;61927;50.080;14.418;2023-05-20T04:54:51;100021.13;;;11.60;77.03
73633;BME280;61927;50.080;14.418;2023-05-20T04:57:16;100015.22;;;11.71;76.76
73633;BME280;61927;50.080;14.418;2023-05-20T04:59:46;100016.50;;;11.80;76.38
73633;BME280;61927;50.080;14.418;2023-05-20T05:02:12;100010.75;;;11.87;76.07
73633;BME280;61927;50.080;14.418;2023-05-20T05:04:37;100021.44;;;12.02;75.38
73633;BME280;61927;50.080;14.418;2023-05-20T05:07:03;100019.09;;;12.11;75.29
73633;BME280;61927;50.080;14.418;2023-05-20T05:09:29;100020.44;;;12.18;74.50
73633;BME280;61927;50.080;14.418;2023-05-20T05:11:55;100013.03;;;12.23;74.38
73633;BME280;61927;50.080;14.418;2023-05-20T05:14:21;100001.53;;;12.23;74.17
73633;BME280;61927;50.080;14.418;2023-05-20T05:16:48;100006.66;;;12.12;74.42
73633;BME280;61927;50.080;14.418;2023-05-20T05:19:14;100007.69;;;12.09;74.57
73633;BME280;61927;50.080;14.418;2023-05-20T05:21:39;100010.56;;;12.20;74.53
73633;BME280;61927;50.080;14.418;2023-05-20T05:24:05;100010.00;;;12.29;74.51
73633;BME280;61927;50.080;14.418;2023-05-20T05:26:31;99995.28;;;12.38;73.67
73633;BME280;61927;50.080;14.418;2023-05-20T05:28:57;99999.31;;;12.45;73.39
73633;BME280;61927;50.080;14.418;2023-05-20T05:31:22;99999.59;;;12.55;73.22
73633;BME280;61927;50.080;14.418;2023-05-20T05:33:48;99992.84;;;12.64;72.71
73633;BME280;61927;50.080;14.418;2023-05-20T05:36:14;99991.72;;;12.68;72.48
73633;BME280;61927;50.080;14.418;2023-05-20T05:38:40;99993.03;;;12.75;72.28
73633;BME280;61927;50.080;14.418;2023-05-20T05:41:05;99998.09;;;12.79;72.17
73633;BME280;61927;50.080;14.418;2023-05-20T05:43:31;99997.03;;;12.82;72.07
73633;BME280;61927;50.080;14.418;2023-05-20T05:45:57;99998.09;;;12.79;71.94
73633;BME280;61927;50.080;14.418;2023-05-20T05:48:23;100004.16;;;12.81;71.79
73633;BME280;61927;50.080;14.418;2023-05-20T05:50:48;99996.75;;;12.86;71.63
73633;BME280;61927;50.080;14.418;2023-05-20T05:53:14;99996.56;;;12.89;71.49
73633;BME280;61927;50.080;14.418;2023-05-20T05:55:39;99997.59;;;12.87;71.50
73633;BME280;61927;50.080;14.418;2023-05-20T05:58:05;99992.75;;;12.93;71.48
73633;BME280;61927;50.080;14.418;2023-05-20T06:00:30;99982.75;;;12.97;71.39
73633;BME280;61927;50.080;14.418;2023-05-20T06:02:56;99982.75;;;12.97;71.56
73633;BME280;61927;50.080;14.418;2023-05-20T06:05:22;99977.53;;;12.96;71.24
73633;BME280;61927;50.080;14.418;2023-05-20T06:07:48;99974.56;;;13.00;70.92
73633;BME280;61927;50.080;14.418;2023-05-20T06:10:13;99982.56;;;13.00;70.85
73633;BME280;61927;50.080;14.418;2023-05-20T06:12:39;99992.25;;;13.01;70.67
73633;BME280;61927;50.080;14.418;2023-05-20T06:15:05;99994.53;;;13.07;70.81
73633;BME280;61927;50.080;14.418;2023-05-20T06:17:31;99984.06;;;13.04;70.84
73633;BME280;61927;50.080;14.418;2023-05-20T06:19:57;99984.75;;;13.08;70.99
73633;BME280;61927;50.080;14.418;2023-05-20T06:22:23;99981.59;;;13.15;71.02
73633;BME280;61927;50.080;14.418;2023-05-20T06:24:48;99971.41;;;13.22;70.60
73633;BME280;61927;50.080;14.418;2023-05-20T06:27:14;99979.97;;;13.27;70.33
73633;BME280;61927;50.080;14.418;2023-05-20T06:29:40;99983.41;;;13.29;70.62
73633;BME280;61927;50.080;14.418;2023-05-20T06:32:06;99989.47;;;13.31;70.57
73633;BME280;61927;50.080;14.418;2023-05-20T06:34:31;99985.88;;;13.32;70.37
73633;BME280;61927;50.080;14.418;2023-05-20T06:36:57;99995.19;;;13.39;70.45
73633;BME280;61927;50.080;14.418;2023-05-20T06:39:23;99996.19;;;13.51;69.83
73633;BME280;61927;50.080;14.418;2023-05-20T06:41:49;99993.78;;;13.61;69.62
73633;BME280;61927;50.080;14.418;2023-05-20T06:44:17;99988.03;;;13.67;69.51
73633;BME280;61927;50.080;14.418;2023-05-20T06:46:43;99980.50;;;13.73;69.34
73633;BME280;61927;50.080;14.418;2023-05-20T06:49:08;99978.72;;;13.86;68.68
73633;BME280;61927;50.080;14.418;2023-05-20T06:51:34;99972.88;;;14.07;68.42
73633;BME280;61927;50.080;14.418;2023-05-20T06:54:00;99977.19;;;14.22;67.71
73633;BME280;61927;50.080;14.418;2023-05-20T06:56:26;99971.53;;;14.39;67.08
73633;BME280;61927;50.080;14.418;2023-05-20T06:58:51;99975.53;;;14.59;66.52
73633;BME280;61927;50.080;14.418;2023-05-20T07:01:17;99958.94;;;14.79;65.95
73633;BME280;61927;50.080;14.418;2023-05-20T07:03:43;99965.66;;;14.98;65.18
73633;BME280;61927;50.080;14.418;2023-05-20T07:06:09;99958.56;;;15.09;64.76
73633;BME280;61927;50.080;14.418;2023-05-20T07:08:35;99962.31;;;15.07;64.85
73633;BME280;61927;50.080;14.418;2023-05-20T07:11:01;99963.16;;;15.07;64.73
73633;BME280;61927;50.080;14.418;2023-05-20T07:13:26;99956.75;;;15.10;64.93
73633;BME280;61927;50.080;14.418;2023-05-20T07:15:52;99947.31;;;15.17;64.75
73633;BME280;61927;50.080;14.418;2023-05-20T07:18:17;99949.09;;;15.29;64.68
73633;BME280;61927;50.080;14.418;2023-05-20T07:20:43;99947.03;;;15.33;64.09
73633;BME280;61927;50.080;14.418;2023-05-20T07:23:09;99936.97;;;15.36;64.07
73633;BME280;61927;50.080;14.418;2023-05-20T07:25:35;99938.63;;;15.50;63.94
73633;BME280;61927;50.080;14.418;2023-05-20T07:28:01;99933.69;;;15.57;63.77
73633;BME280;61927;50.080;14.418;2023-05-20T07:30:26;99938.81;;;15.60;63.45
73633;BME280;61927;50.080;14.418;2023-05-20T07:32:52;99936.66;;;15.65;63.20
73633;BME280;61927;50.080;14.418;2023-05-20T07:35:18;99945.94;;;15.72;63.23
73633;BME280;61927;50.080;14.418;2023-05-20T07:37:43;99937.59;;;15.88;62.58
73633;BME280;61927;50.080;14.418;2023-05-20T07:40:09;99926.19;;;15.97;62.25
73633;BME280;61927;50.080;14.418;2023-05-20T07:42:35;99930.84;;;16.06;62.17
73633;BME280;61927;50.080;14.418;2023-05-20T07:45:01;99929.16;;;16.16;61.88
73633;BME280;61927;50.080;14.418;2023-05-20T07:47:26;99925.78;;;16.25;61.29
73633;BME280;61927;50.080;14.418;2023-05-20T07:49:52;99917.63;;;16.38;61.29
73633;BME280;61927;50.080;14.418;2023-05-20T07:52:18;99912.78;;;16.43;60.81
73633;BME280;61927;50.080;14.418;2023-05-20T07:54:43;99915.22;;;16.46;60.73
73633;BME280;61927;50.080;14.418;2023-05-20T07:57:09;99905.09;;;16.50;60.53
73633;BME280;61927;50.080;14.418;2023-05-20T07:59:35;99907.19;;;16.57;60.42
73633;BME280;61927;50.080;14.418;2023-05-20T08:02:00;99899.28;;;16.67;60.33
73633;BME280;61927;50.080;14.418;2023-05-20T08:04:26;99902.47;;;16.72;60.07
73633;BME280;61927;50.080;14.418;2023-05-20T08:06:52;99904.66;;;16.78;59.79
73633;BME280;61927;50.080;14.418;2023-05-20T08:09:18;99895.00;;;16.87;59.59
73633;BME280;61927;50.080;14.418;2023-05-20T08:11:44;99890.88;;;16.83;59.80
73633;BME280;61927;50.080;14.418;2023-05-20T08:14:10;99893.31;;;16.86;59.92
73633;BME280;61927;50.080;14.418;2023-05-20T08:16:35;99887.94;;;16.86;60.14
73633;BME280;61927;50.080;14.418;2023-05-20T08:19:02;99884.78;;;16.81;60.01
73633;BME280;61927;50.080;14.418;2023-05-20T08:21:27;99890.00;;;16.93;59.96
73633;BME280;61927;50.080;14.418;2023-05-20T08:23:54;99879.59;;;17.11;59.54
73633;BME280;61927;50.080;14.418;2023-05-20T08:26:19;99878.84;;;17.20;58.97
73633;BME280;61927;50.080;14.418;2023-05-20T08:28:46;99874.22;;;17.22;59.46
73633;BME280;61927;50.080;14.418;2023-05-20T08:31:13;99881.16;;;17.25;58.87
73633;BME280;61927;50.080;14.418;2023-05-20T08:33:38;99877.25;;;17.29;59.40
73633;BME280;61927;50.080;14.418;2023-05-20T08:36:05;99876.44;;;17.49;58.30
73633;BME280;61927;50.080;14.418;2023-05-20T08:38:32;99870.16;;;17.60;58.54
73633;BME280;61927;50.080;14.418;2023-05-20T08:40:58;99870.72;;;17.74;57.74
73633;BME280;61927;50.080;14.418;2023-05-20T08:43:25;99868.97;;;17.85;57.87
73633;BME280;61927;50.080;14.418;2023-05-20T08:45:51;99871.53;;;17.86;57.29
73633;BME280;61927;50.080;14.418;2023-05-20T08:48:17;99864.31;;;17.87;57.52
73633;BME280;61927;50.080;14.418;2023-05-20T08:50:48;99861.38;;;17.90;57.35
73633;BME280;61927;50.080;14.418;2023-05-20T08:53:14;99855.22;;;17.99;57.38
73633;BME280;61927;50.080;14.418;2023-05-20T08:55:52;99851.53;;;18.21;57.47
73633;BME280;61927;50.080;14.418;2023-05-20T08:58:19;99851.34;;;18.43;56.16
73633;BME280;61927;50.080;14.418;2023-05-20T09:00:45;99845.16;;;18.52;55.91
73633;BME280;61927;50.080;14.418;2023-05-20T09:03:11;99854.13;;;18.62;55.77
73633;BME280;61927;50.080;14.418;2023-05-20T09:05:36;99847.38;;;18.68;55.80
73633;BME280;61927;50.080;14.418;2023-05-20T09:10:32;99851.34;;;18.74;55.12
73633;BME280;61927;50.080;14.418;2023-05-20T09:13:01;99853.75;;;18.77;55.45
73633;BME280;61927;50.080;14.418;2023-05-20T09:15:29;99854.75;;;18.76;55.40
73633;BME280;61927;50.080;14.418;2023-05-20T09:17:55;99852.91;;;18.76;55.59
73633;BME280;61927;50.080;14.418;2023-05-20T09:20:24;99845.84;;;18.75;56.22
73633;BME280;61927;50.080;14.418;2023-05-20T09:22:51;99847.84;;;18.83;55.81
73633;BME280;61927;50.080;14.418;2023-05-20T09:25:21;99851.94;;;18.87;55.59
73633;BME280;61927;50.080;14.418;2023-05-20T09:27:48;99850.41;;;18.94;55.37
73633;BME280;61927;50.080;14.418;2023-05-20T09:30:14;99844.47;;;19.00;55.39
73633;BME280;61927;50.080;14.418;2023-05-20T09:32:43;99842.38;;;19.13;55.37
73633;BME280;61927;50.080;14.418;2023-05-20T09:35:11;99841.25;;;19.16;55.28
73633;BME280;61927;50.080;14.418;2023-05-20T09:37:41;99834.31;;;19.23;55.92
73633;BME280;61927;50.080;14.418;2023-05-20T09:40:07;99841.81;;;19.29;55.56
73633;BME280;61927;50.080;14.418;2023-05-20T09:42:57;99837.16;;;19.41;55.42
73633;BME280;61927;50.080;14.418;2023-05-20T09:45:24;99825.84;;;19.56;55.13
73633;BME280;61927;50.080;14.418;2023-05-20T09:47:51;99825.69;;;19.67;54.42
73633;BME280;61927;50.080;14.418;2023-05-20T09:50:18;99820.16;;;19.69;54.49
73633;BME280;61927;50.080;14.418;2023-05-20T09:52:51;99815.63;;;19.79;54.37
73633;BME280;61927;50.080;14.418;2023-05-20T09:55:19;99817.44;;;19.79;54.70
73633;BME280;61927;50.080;14.418;2023-05-20T09:57:45;99806.53;;;19.80;54.83
73633;BME280;61927;50.080;14.418;2023-05-20T10:00:12;99804.66;;;19.90;54.43
73633;BME280;61927;50.080;14.418;2023-05-20T10:02:47;99798.00;;;19.94;54.56
73633;BME280;61927;50.080;14.418;2023-05-20T10:05:21;99793.59;;;19.93;54.45
73633;BME280;61927;50.080;14.418;2023-05-20T10:19:13;99787.41;;;20.57;53.23
73633;BME280;61927;50.080;14.418;2023-05-20T10:21:42;99781.88;;;20.59;53.25
73633;BME280;61927;50.080;14.418;2023-05-20T10:24:08;99784.66;;;20.67;53.13
73633;BME280;61927;50.080;14.418;2023-05-20T10:26:36;99777.50;;;20.76;53.07
73633;BME280;61927;50.080;14.418;2023-05-20T10:29:22;99768.91;;;20.90;52.73
73633;BME280;61927;50.080;14.418;2023-05-20T10:31:49;99769.22;;;21.05;52.02
73633;BME280;61927;50.080;14.418;2023-05-20T10:34:16;99769.44;;;21.11;52.16
73633;BME280;61927;50.080;14.418;2023-05-20T10:39:29;99769.84;;;21.16;51.67
73633;BME280;61927;50.080;14.418;2023-05-20T10:42:08;99771.84;;;21.14;51.62
73633;BME280;61927;50.080;14.418;2023-05-20T10:44:41;99764.75;;;21.31;51.79
73633;BME280;61927;50.080;14.418;2023-05-20T10:47:08;99756.50;;;21.33;51.13
73633;BME280;61927;50.080;14.418;2023-05-20T10:49:34;99757.66;;;21.30;51.59
73633;BME280;61927;50.080;14.418;2023-05-20T10:52:00;99751.75;;;21.26;51.79
73633;BME280;61927;50.080;14.418;2023-05-20T10:54:26;99747.78;;;21.21;52.05
73633;BME280;61927;50.080;14.418;2023-05-20T10:56:53;99744.66;;;21.25;51.92
73633;BME280;61927;50.080;14.418;2023-05-20T10:59:20;99742.47;;;21.29;51.73
73633;BME280;61927;50.080;14.418;2023-05-20T11:01:47;99741.38;;;21.40;51.54
73633;BME280;61927;50.080;14.418;2023-05-20T11:04:14;99727.78;;;21.49;51.50
73633;BME280;61927;50.080;14.418;2023-05-20T11:06:49;99724.13;;;21.58;51.47
73633;BME280;61927;50.080;14.418;2023-05-20T11:09:15;99721.81;;;21.64;51.10
73633;BME280;61927;50.080;14.418;2023-05-20T11:11:41;99720.34;;;21.69;50.65
73633;BME280;61927;50.080;14.418;2023-05-20T11:14:09;99726.94;;;21.75;51.03
73633;BME280;61927;50.080;14.418;2023-05-20T11:16:38;99720.59;;;21.84;50.12
73633;BME280;61927;50.080;14.418;2023-05-20T11:19:06;99712.69;;;21.90;50.17
73633;BME280;61927;50.080;14.418;2023-05-20T11:21:32;99718.47;;;21.96;50.38
73633;BME280;61927;50.080;14.418;2023-05-20T11:23:58;99715.50;;;22.07;49.79
73633;BME280;61927;50.080;14.418;2023-05-20T11:26:24;99708.56;;;22.04;49.99
73633;BME280;61927;50.080;14.418;2023-05-20T11:28:50;99707.44;;;21.89;50.60
73633;BME280;61927;50.080;14.418;2023-05-20T11:31:17;99712.63;;;21.82;50.58
73633;BME280;61927;50.080;14.418;2023-05-20T11:33:43;99708.72;;;21.77;50.46
73633;BME280;61927;50.080;14.418;2023-05-20T11:36:09;99697.97;;;21.85;51.03
73633;BME280;61927;50.080;14.418;2023-05-20T11:38:35;99703.22;;;21.86;50.76
73633;BME280;61927;50.080;14.418;2023-05-20T11:41:01;99695.84;;;21.97;50.29
73633;BME280;61927;50.080;14.418;2023-05-20T11:43:27;99696.47;;;22.16;49.87
73633;BME280;61927;50.080;14.418;2023-05-20T11:45:55;99688.22;;;22.26;49.53
73633;BME280;61927;50.080;14.418;2023-05-20T11:48:22;99690.94;;;22.34;49.90
73633;BME280;61927;50.080;14.418;2023-05-20T11:50:48;99692.31;;;22.38;49.90
73633;BME280;61927;50.080;14.418;2023-05-20T11:53:19;99680.34;;;22.57;49.79
73633;BME280;61927;50.080;14.418;2023-05-20T11:55:56;99686.25;;;22.52;49.34
73633;BME280;61927;50.080;14.418;2023-05-20T11:58:24;99679.50;;;22.56;49.10
73633;BME280;61927;50.080;14.418;2023-05-20T12:00:51;99669.38;;;22.59;49.46
73633;BME280;61927;50.080;14.418;2023-05-20T12:03:17;99663.97;;;22.67;49.31
73633;BME280;61927;50.080;14.418;2023-05-20T12:05:42;99668.56;;;22.74;49.37
73633;BME280;61927;50.080;14.418;2023-05-20T12:08:08;99665.22;;;22.80;48.92
73633;BME280;61927;50.080;14.418;2023-05-20T12:10:34;99660.81;;;22.96;48.51
73633;BME280;61927;50.080;14.418;2023-05-20T12:13:02;99665.03;;;23.06;48.14
73633;BME280;61927;50.080;14.418;2023-05-20T12:15:28;99665.38;;;23.03;48.16
73633;BME280;61927;50.080;14.418;2023-05-20T12:17:55;99658.94;;;23.12;47.61
73633;BME280;61927;50.080;14.418;2023-05-20T12:20:22;99659.47;;;23.00;48.58
73633;BME280;61927;50.080;14.418;2023-05-20T12:22:48;99662.00;;;22.85;48.44
73633;BME280;61927;50.080;14.418;2023-05-20T12:25:15;99670.13;;;22.85;48.27
73633;BME280;61927;50.080;14.418;2023-05-20T12:27:42;99662.50;;;22.88;48.93
73633;BME280;61927;50.080;14.418;2023-05-20T12:30:08;99669.09;;;22.86;48.53
73633;BME280;61927;50.080;14.418;2023-05-20T12:32:37;99663.19;;;22.91;47.57
73633;BME280;61927;50.080;14.418;2023-05-20T12:35:03;99664.19;;;22.98;47.61
73633;BME280;61927;50.080;14.418;2023-05-20T12:37:28;99668.75;;;22.89;48.54
73633;BME280;61927;50.080;14.418;2023-05-20T12:39:54;99660.81;;;22.87;48.49
73633;BME280;61927;50.080;14.418;2023-05-20T12:42:20;99651.00;;;23.03;48.23
73633;BME280;61927;50.080;14.418;2023-05-20T12:44:46;99653.69;;;23.19;48.42
73633;BME280;61927;50.080;14.418;2023-05-20T12:47:11;99646.41;;;23.28;46.87
73633;BME280;61927;50.080;14.418;2023-05-20T12:49:37;99640.84;;;23.29;46.88
73633;BME280;61927;50.080;14.418;2023-05-20T12:52:03;99644.03;;;23.33;47.21
73633;BME280;61927;50.080;14.418;2023-05-20T12:54:29;99642.34;;;23.32;47.57
73633;BME280;61927;50.080;14.418;2023-05-20T12:56:55;99638.09;;;23.45;47.16
73633;BME280;61927;50.080;14.418;2023-05-20T12:59:20;99638.78;;;23.56;46.54